createdAt,value
2022-09-03T00:00:04.898Z,46.26
2022-09-03T00:02:43.922Z,46.49
2022-09-03T00:05:23.455Z,46.61
2022-09-03T00:08:05.129Z,47.05
2022-09-03T00:10:45.132Z,46.57
2022-09-03T00:13:21.360Z,47.40
2022-09-03T00:15:53.584Z,47.25
2022-09-03T00:18:27.098Z,47.39
2022-09-03T00:21:08.614Z,47.98
2022-09-03T00:23:43.397Z,48.27
2022-09-03T00:26:26.795Z,49.17
2022-09-03T00:29:04.875Z,49.06
2022-09-03T00:31:39.097Z,49.18
2022-09-03T00:34:16.629Z,50.23
2022-09-03T00:36:47.939Z,50.45
2022-09-03T00:39:20.329Z,50.10
2022-09-03T00:42:07.025Z,50.63
2022-09-03T00:45:10.566Z,51.35
2022-09-03T00:47:50.704Z,50.89
2022-09-03T00:50:30.916Z,50.64
2022-09-03T00:53:13.495Z,51.03
2022-09-03T00:55:58.893Z,51.26
2022-09-03T00:58:46.426Z,52.17
2022-09-03T01:01:24.243Z,52.70
2022-09-03T01:04:06.635Z,52.53
2022-09-03T01:06:47.198Z,52.70
2022-09-03T01:09:36.468Z,52.07
2022-09-03T01:12:18.163Z,51.98
2022-09-03T01:15:04.447Z,52.16
2022-09-03T01:17:57.318Z,52.29
2022-09-03T01:20:44.216Z,52.34
2022-09-03T01:24:07.505Z,52.13
2022-09-03T01:26:56.600Z,51.95
2022-09-03T01:29:35.791Z,52.10
2022-09-03T01:32:15.822Z,51.99
2022-09-03T01:34:59.159Z,52.13
2022-09-03T01:37:43.806Z,52.34
2022-09-03T01:40:25.075Z,51.88
2022-09-03T01:43:19.006Z,52.84
2022-09-03T01:46:00.544Z,52.73
2022-09-03T01:48:42.202Z,52.72
2022-09-03T01:51:22.945Z,52.80
2022-09-03T01:54:28.503Z,53.84
2022-09-03T01:57:35.529Z,54.31
2022-09-03T02:00:12.673Z,54.11
2022-09-03T02:02:47.991Z,54.00
2022-09-03T02:05:24.301Z,55.05
2022-09-03T02:08:00.459Z,55.77
2022-09-03T02:10:35.193Z,55.49
2022-09-03T02:13:09.267Z,55.73
2022-09-03T02:15:44.766Z,56.36
2022-09-03T02:18:21.574Z,56.57
2022-09-03T02:20:51.975Z,56.98
2022-09-03T02:23:24.696Z,56.87
2022-09-03T02:26:00.112Z,58.10
2022-09-03T02:28:31.616Z,58.09
2022-09-03T02:31:01.541Z,58.60
2022-09-03T02:33:33.667Z,59.11
2022-09-03T02:36:05.263Z,59.09
2022-09-03T02:38:34.911Z,59.34
2022-09-03T02:41:04.345Z,59.41
2022-09-03T02:43:40.965Z,59.57
2022-09-03T02:46:16.762Z,60.54
2022-09-03T02:48:47.456Z,59.87
2022-09-03T02:51:16.880Z,59.67
2022-09-03T02:53:47.290Z,60.43
2022-09-03T02:56:16.510Z,60.70
2022-09-03T02:58:45.708Z,60.65
2022-09-03T03:01:23.625Z,61.33
2022-09-03T03:03:55.524Z,61.48
2022-09-03T03:06:25.000Z,61.45
2022-09-03T03:08:56.074Z,61.60
2022-09-03T03:11:26.471Z,61.69
2022-09-03T03:13:55.671Z,61.58
2022-09-03T03:16:24.987Z,62.14
2022-09-03T03:18:57.592Z,61.83
2022-09-03T03:21:26.714Z,63.22
2022-09-03T03:23:56.015Z,62.87
2022-09-03T03:26:25.383Z,63.53
2022-09-03T03:28:59.792Z,63.73
2022-09-03T03:31:29.556Z,64.61
2022-09-03T03:34:02.938Z,64.33
2022-09-03T03:36:35.159Z,64.86
2022-09-03T03:39:05.112Z,64.79
2022-09-03T03:41:36.800Z,64.97
2022-09-03T03:44:08.248Z,65.98
2022-09-03T03:46:40.060Z,65.92
2022-09-03T03:49:11.245Z,65.77
2022-09-03T03:51:40.943Z,66.86
2022-09-03T03:54:10.049Z,67.21
2022-09-03T03:56:40.661Z,66.92
2022-09-03T03:59:10.050Z,67.35
2022-09-03T04:01:39.226Z,67.83
2022-09-03T04:04:09.869Z,68.18
2022-09-03T04:06:39.382Z,67.81
2022-09-03T04:09:08.737Z,67.02
2022-09-03T04:11:37.897Z,67.93
2022-09-03T04:14:07.145Z,67.72
2022-09-03T04:16:36.544Z,68.51
2022-09-03T04:19:05.739Z,68.86
2022-09-03T04:21:36.852Z,68.57
2022-09-03T04:24:07.278Z,67.95
2022-09-03T04:26:37.481Z,68.39
2022-09-03T04:29:10.049Z,67.93
2022-09-03T04:32:00.364Z,67.45
2022-09-03T04:34:29.979Z,66.51
2022-09-03T04:37:00.603Z,65.81
2022-09-03T04:39:29.901Z,66.02
2022-09-03T04:42:00.154Z,65.27
2022-09-03T04:44:29.423Z,66.21
2022-09-03T04:46:58.787Z,65.61
2022-09-03T04:49:28.161Z,65.21
2022-09-03T04:51:57.381Z,65.98
2022-09-03T04:54:29.777Z,66.45
2022-09-03T04:56:59.008Z,67.83
2022-09-03T04:59:28.177Z,67.22
2022-09-03T05:01:57.818Z,67.23
2022-09-03T05:04:27.235Z,68.25
2022-09-03T05:06:56.665Z,68.59
2022-09-03T05:09:27.303Z,68.66
2022-09-03T05:11:56.573Z,69.10
2022-09-03T05:14:25.766Z,69.05
2022-09-03T05:16:55.005Z,69.29
2022-09-03T05:19:24.194Z,69.52
2022-09-03T05:21:53.366Z,69.72
2022-09-03T05:24:22.577Z,69.15
2022-09-03T05:26:53.074Z,69.76
2022-09-03T05:29:22.276Z,70.16
2022-09-03T05:31:51.465Z,70.14
2022-09-03T05:34:20.677Z,69.79
2022-09-03T05:36:49.996Z,69.78
2022-09-03T05:39:19.255Z,70.19
2022-09-03T05:41:50.539Z,70.85
2022-09-03T05:44:23.447Z,71.84
2022-09-03T05:46:53.591Z,71.66
2022-09-03T05:49:23.196Z,72.94
2022-09-03T05:51:52.329Z,71.94
2022-09-03T05:54:21.637Z,72.69
2022-09-03T05:56:50.994Z,73.08
2022-09-03T05:59:21.548Z,73.80
2022-09-03T06:01:53.018Z,72.90
2022-09-03T06:04:26.016Z,73.06
2022-09-03T06:06:55.278Z,74.45
2022-09-03T06:09:24.396Z,73.63
2022-09-03T06:11:54.682Z,73.82
2022-09-03T06:14:28.047Z,74.92
2022-09-03T06:16:57.354Z,75.09
2022-09-03T06:19:26.510Z,74.72
2022-09-03T06:21:55.692Z,76.18
2022-09-03T06:24:28.416Z,75.67
2022-09-03T06:26:58.268Z,74.98
2022-09-03T06:29:31.239Z,75.27
2022-09-03T06:32:02.311Z,74.74
2022-09-03T06:34:32.395Z,75.17
2022-09-03T06:37:04.425Z,74.44
2022-09-03T06:39:36.417Z,75.44
2022-09-03T06:42:06.402Z,75.28
2022-09-03T06:44:40.484Z,75.53
2022-09-03T06:47:09.879Z,75.13
2022-09-03T06:49:42.347Z,76.22
2022-09-03T06:52:11.630Z,76.67
2022-09-03T06:54:45.211Z,76.53
2022-09-03T06:57:16.700Z,76.72
2022-09-03T06:59:47.812Z,77.25
2022-09-03T07:02:17.332Z,77.06
2022-09-03T07:04:46.678Z,76.41
2022-09-03T07:07:17.636Z,77.39
2022-09-03T07:09:48.445Z,76.23
2022-09-03T07:12:19.419Z,77.07
2022-09-03T07:14:51.095Z,77.68
2022-09-03T07:17:20.560Z,76.68
2022-09-03T07:23:16.515Z,76.97
2022-09-03T07:25:45.798Z,77.34
2022-09-03T07:28:15.238Z,77.71
2022-09-03T07:30:47.490Z,77.57
2022-09-03T07:33:16.698Z,77.88
2022-09-03T07:35:46.025Z,76.29
2022-09-03T07:38:19.945Z,77.12
2022-09-03T07:40:49.366Z,76.01
2022-09-03T07:43:18.737Z,77.47
2022-09-03T07:45:55.745Z,77.50
2022-09-03T07:48:25.612Z,76.87
2022-09-03T07:51:01.515Z,77.01
2022-09-03T07:53:31.361Z,77.03
2022-09-03T07:56:04.958Z,77.65
2022-09-03T07:58:35.994Z,77.69
2022-09-03T08:01:11.219Z,78.13
2022-09-03T08:03:45.588Z,78.26
2022-09-03T08:06:16.805Z,77.58
2022-09-03T08:08:46.458Z,79.22
2022-09-03T08:11:19.463Z,78.88
2022-09-03T08:13:54.942Z,80.02
2022-09-03T08:16:25.672Z,79.43
2022-09-03T08:18:56.580Z,80.26
2022-09-03T08:21:26.701Z,79.85
2022-09-03T08:24:02.647Z,80.34
2022-09-03T08:26:34.060Z,80.31
2022-09-03T08:29:03.739Z,79.88
2022-09-03T08:31:35.257Z,79.90
2022-09-03T08:34:07.802Z,80.79
2022-09-03T08:36:41.471Z,80.34
2022-09-03T08:39:12.759Z,80.45
2022-09-03T08:42:14.947Z,79.92
2022-09-03T08:44:48.773Z,80.07
2022-09-03T08:47:25.838Z,79.57
2022-09-03T08:49:59.682Z,80.20
2022-09-03T08:52:36.672Z,79.68
2022-09-03T08:55:29.911Z,81.60
2022-09-03T08:58:07.959Z,80.96
2022-09-03T09:00:50.767Z,81.01
2022-09-03T09:03:44.311Z,81.05
2022-09-03T09:06:28.104Z,81.70
2022-09-03T09:09:13.882Z,80.83
2022-09-03T09:12:03.420Z,81.14
2022-09-03T09:14:43.936Z,81.71
2022-09-03T09:17:38.063Z,82.07
2022-09-03T09:20:20.278Z,81.27
2022-09-03T09:22:53.564Z,81.22
2022-09-03T09:25:26.438Z,81.50
2022-09-03T09:28:03.321Z,81.17
2022-09-03T09:30:34.608Z,80.46
2022-09-03T09:33:03.870Z,81.37
2022-09-03T09:35:34.861Z,81.33
2022-09-03T09:38:04.215Z,80.79
2022-09-03T09:40:44.606Z,81.41
2022-09-03T09:43:17.419Z,81.58
2022-09-03T09:45:49.112Z,80.88
2022-09-03T09:48:26.519Z,81.71
2022-09-03T09:51:08.683Z,80.17
2022-09-03T09:53:40.487Z,81.85
2022-09-03T09:56:10.488Z,82.15
2022-09-03T09:58:40.142Z,81.47
2022-09-03T10:01:16.431Z,81.17
2022-09-03T10:03:55.450Z,81.12
2022-09-03T10:06:49.440Z,80.94
2022-09-03T10:09:30.891Z,81.76
2022-09-03T10:12:15.519Z,82.33
2022-09-03T10:14:54.547Z,81.16
2022-09-03T10:17:36.756Z,82.57
2022-09-03T10:20:33.984Z,82.12
2022-09-03T10:23:13.083Z,81.84
2022-09-03T10:25:56.174Z,81.13
2022-09-03T10:28:30.377Z,81.61
2022-09-03T10:31:26.618Z,82.85
2022-09-03T10:34:02.959Z,81.91
2022-09-03T10:36:41.124Z,82.28
2022-09-03T10:39:19.944Z,82.61
2022-09-03T10:42:06.848Z,82.22
2022-09-03T10:44:54.677Z,82.07
2022-09-03T10:47:51.736Z,81.86
2022-09-03T10:50:29.144Z,82.60
2022-09-03T10:53:13.325Z,82.00
2022-09-03T10:55:56.628Z,82.05
2022-09-03T10:59:04.157Z,83.56
2022-09-03T11:01:44.217Z,82.65
2022-09-03T11:04:27.315Z,82.67
2022-09-03T11:07:02.257Z,81.76
2022-09-03T11:09:38.368Z,82.03
2022-09-03T11:12:14.312Z,82.26
2022-09-03T11:14:48.187Z,82.33
2022-09-03T11:17:24.348Z,83.02
2022-09-03T11:20:06.749Z,82.97
2022-09-03T11:22:37.590Z,82.43
2022-09-03T11:25:11.344Z,83.11
2022-09-03T11:28:01.946Z,83.48
2022-09-03T11:30:41.537Z,83.04
2022-09-03T11:33:12.873Z,83.72
2022-09-03T11:35:43.998Z,83.48
2022-09-03T11:38:27.528Z,83.35
2022-09-03T11:41:04.752Z,83.14
2022-09-03T11:43:36.003Z,83.89
2022-09-03T11:46:13.158Z,83.30
2022-09-03T11:48:46.242Z,82.80
2022-09-03T11:51:35.802Z,83.51
2022-09-03T11:54:08.696Z,83.62
2022-09-03T11:56:39.315Z,84.06
2022-09-03T11:59:24.347Z,83.72
2022-09-03T12:02:00.570Z,84.38
2022-09-03T12:04:42.181Z,83.35
2022-09-03T12:07:35.975Z,83.73
2022-09-03T12:10:33.621Z,84.31
2022-09-03T12:13:47.755Z,84.18
2022-09-03T12:16:58.222Z,84.39
2022-09-03T12:19:37.586Z,84.45
2022-09-03T12:22:07.234Z,84.19
2022-09-03T12:24:38.452Z,84.00
2022-09-03T12:27:10.823Z,84.23
2022-09-03T12:29:41.239Z,85.14
2022-09-03T12:32:14.831Z,84.39
2022-09-03T12:34:44.048Z,84.94
2022-09-03T12:40:23.353Z,84.69
2022-09-03T12:42:52.711Z,84.26
2022-09-03T12:45:25.237Z,85.16
2022-09-03T12:47:55.925Z,85.13
2022-09-03T12:50:27.163Z,84.82
2022-09-03T12:53:00.961Z,84.41
2022-09-03T12:55:37.471Z,84.77
2022-09-03T12:58:14.026Z,85.18
2022-09-03T13:00:48.332Z,84.90
2022-09-03T13:03:26.141Z,85.13
2022-09-03T13:05:59.625Z,85.33
2022-09-03T13:08:33.287Z,85.35
2022-09-03T13:11:05.728Z,85.03
2022-09-03T13:13:39.487Z,85.70
2022-09-03T13:16:31.090Z,86.04
2022-09-03T13:19:10.439Z,86.68
2022-09-03T13:21:49.783Z,86.10
2022-09-03T13:24:57.365Z,86.57
2022-09-03T13:27:35.815Z,87.04
2022-09-03T13:30:12.308Z,87.30
2022-09-03T13:32:59.479Z,88.17
2022-09-03T13:35:37.842Z,87.88
2022-09-03T13:38:22.490Z,86.77
2022-09-03T13:40:57.634Z,87.16
2022-09-03T13:43:36.447Z,87.87
2022-09-03T13:46:12.271Z,88.27
2022-09-03T13:49:16.559Z,87.19
2022-09-03T13:51:53.847Z,88.97
2022-09-03T13:54:48.285Z,88.29
2022-09-03T13:57:31.670Z,88.70
2022-09-03T14:00:07.595Z,88.70
2022-09-03T14:02:52.609Z,88.10
2022-09-03T14:05:52.351Z,88.73
2022-09-03T14:08:34.550Z,88.09
2022-09-03T14:11:26.173Z,88.55
2022-09-03T14:14:25.394Z,88.45
2022-09-03T14:17:03.352Z,88.45
2022-09-03T14:19:44.720Z,88.52
2022-09-03T14:22:20.682Z,88.36
2022-09-03T14:24:57.095Z,88.83
2022-09-03T14:27:29.316Z,88.59
2022-09-03T14:30:03.202Z,88.78
2022-09-03T14:32:51.070Z,88.88
2022-09-03T14:35:40.929Z,88.45
2022-09-03T14:38:37.431Z,89.45
2022-09-03T14:41:24.046Z,88.93
2022-09-03T14:44:37.997Z,88.38
2022-09-03T14:47:22.340Z,88.30
2022-09-03T14:50:16.296Z,89.73
2022-09-03T14:53:33.146Z,89.75
2022-09-03T14:56:27.602Z,88.32
2022-09-03T14:59:40.465Z,89.34
2022-09-03T15:02:46.332Z,88.64
2022-09-03T15:05:29.440Z,89.32
2022-09-03T15:08:09.558Z,89.61
2022-09-03T15:10:46.593Z,89.54
2022-09-03T15:13:21.276Z,88.77
2022-09-03T15:16:09.492Z,89.56
2022-09-03T15:19:04.856Z,89.90
2022-09-03T15:22:01.512Z,90.07
2022-09-03T15:24:47.929Z,89.56
2022-09-03T15:27:42.177Z,89.65
2022-09-03T15:30:15.849Z,89.80
2022-09-03T15:32:59.023Z,89.87
2022-09-03T15:35:46.805Z,89.19
2022-09-03T15:38:31.477Z,90.41
2022-09-03T15:41:06.959Z,90.04
2022-09-03T15:43:37.203Z,89.95
2022-09-03T15:46:25.084Z,89.75
2022-09-03T15:49:03.020Z,90.13
2022-09-03T15:51:37.037Z,90.17
2022-09-03T15:54:18.749Z,90.09
2022-09-03T15:56:54.579Z,89.99
2022-09-03T15:59:41.325Z,90.10
2022-09-03T16:02:17.302Z,90.02
2022-09-03T16:05:06.234Z,90.19
2022-09-03T16:08:06.635Z,90.94
2022-09-03T16:10:51.122Z,91.62
2022-09-03T16:13:57.725Z,91.59
2022-09-03T16:16:33.161Z,92.95
2022-09-03T16:19:12.516Z,91.94
2022-09-03T16:21:51.277Z,92.83
2022-09-03T16:24:25.223Z,92.11
2022-09-03T16:27:01.649Z,91.97
2022-09-03T16:29:33.051Z,92.23
2022-09-03T16:32:19.511Z,92.43
2022-09-03T16:35:08.927Z,93.06
2022-09-03T16:37:58.724Z,92.56
2022-09-03T16:40:38.670Z,92.77
2022-09-03T16:43:39.489Z,93.26
2022-09-03T16:46:26.392Z,92.86
2022-09-03T16:49:22.240Z,93.88
2022-09-03T16:52:04.991Z,93.22
2022-09-03T16:54:57.265Z,93.61
2022-09-03T16:57:46.048Z,94.83
2022-09-03T17:00:17.714Z,93.63
2022-09-03T17:03:26.299Z,94.54
2022-09-03T17:06:46.817Z,94.14
2022-09-03T17:09:35.771Z,94.49
2022-09-03T17:12:16.343Z,94.40
2022-09-03T17:15:26.415Z,94.33
2022-09-03T17:18:32.724Z,95.26
2022-09-03T17:21:23.094Z,95.14
2022-09-03T17:24:24.746Z,95.52
2022-09-03T17:27:04.337Z,94.66
2022-09-03T17:29:55.402Z,95.63
2022-09-03T17:32:41.928Z,95.00
2022-09-03T17:35:17.229Z,94.56
2022-09-03T17:38:04.718Z,95.21
2022-09-03T17:40:49.064Z,94.92
2022-09-03T17:43:29.184Z,94.86
2022-09-03T17:46:13.874Z,94.70
2022-09-03T17:48:52.710Z,94.40
2022-09-03T17:51:46.513Z,94.54
2022-09-03T17:54:33.242Z,94.10
2022-09-03T17:57:16.483Z,94.18
2022-09-03T17:59:53.312Z,93.92
2022-09-03T18:02:36.953Z,94.03
2022-09-03T18:05:19.718Z,94.32
2022-09-03T18:08:00.193Z,93.19
2022-09-03T18:10:35.834Z,92.23
2022-09-03T18:13:23.663Z,92.86
2022-09-03T18:16:02.188Z,92.94
2022-09-03T18:18:33.782Z,92.33
2022-09-03T18:21:30.853Z,93.43
2022-09-03T18:24:28.032Z,92.40
2022-09-03T18:27:20.631Z,92.51
2022-09-03T18:30:17.822Z,91.90
2022-09-03T18:33:04.360Z,92.69
2022-09-03T18:35:54.802Z,92.35
2022-09-03T18:38:45.908Z,92.44
2022-09-03T18:41:59.806Z,92.06
2022-09-03T18:45:21.029Z,92.19
2022-09-03T18:48:28.326Z,91.89
2022-09-03T18:51:25.039Z,91.81
2022-09-03T18:54:27.769Z,91.90
2022-09-03T18:57:14.756Z,91.40
2022-09-03T19:00:29.099Z,92.34
2022-09-03T19:03:56.958Z,91.87
2022-09-03T19:06:56.599Z,91.70
2022-09-03T19:10:03.510Z,91.70
2022-09-03T19:13:10.786Z,91.74
2022-09-03T19:16:11.339Z,91.97
2022-09-03T19:19:31.019Z,92.03
2022-09-03T19:22:27.052Z,92.31
2022-09-03T19:25:27.210Z,91.99
2022-09-03T19:28:29.839Z,91.50
2022-09-03T19:31:47.433Z,91.75
2022-09-03T19:35:00.376Z,92.94
2022-09-03T19:37:53.766Z,92.46
2022-09-03T19:41:04.263Z,91.73
2022-09-03T19:44:07.567Z,90.93
2022-09-03T19:47:05.726Z,90.85
2022-09-03T19:50:08.740Z,91.81
2022-09-03T19:53:08.131Z,91.50
2022-09-03T19:55:58.040Z,91.07
2022-09-03T19:58:48.993Z,91.24
2022-09-03T20:01:37.819Z,90.77
2022-09-03T20:04:32.000Z,90.79
2022-09-03T20:07:26.929Z,91.18
2022-09-03T20:10:18.836Z,91.40
2022-09-03T20:12:57.680Z,90.38
2022-09-03T20:15:37.927Z,91.20
2022-09-03T20:18:17.240Z,91.56
2022-09-03T20:20:54.102Z,90.44
2022-09-03T20:23:36.679Z,90.75
2022-09-03T20:26:21.351Z,90.61
2022-09-03T20:29:22.380Z,90.82
2022-09-03T20:32:06.028Z,90.25
2022-09-03T20:34:46.813Z,89.78
2022-09-03T20:37:29.990Z,89.87
2022-09-03T20:40:16.776Z,90.22
2022-09-03T20:43:05.727Z,89.51
2022-09-03T20:45:53.709Z,89.25
2022-09-03T20:48:32.787Z,89.92
2022-09-03T20:51:10.245Z,89.37
2022-09-03T20:54:06.367Z,89.33
2022-09-03T20:57:08.392Z,89.81
2022-09-03T20:59:59.557Z,89.56
2022-09-03T21:02:51.042Z,88.96
2022-09-03T21:05:28.278Z,90.11
2022-09-03T21:08:14.725Z,89.52
2022-09-03T21:10:53.865Z,88.82
2022-09-03T21:13:40.405Z,86.33
2022-09-03T21:16:28.856Z,85.36
2022-09-03T21:19:09.892Z,89.27
2022-09-03T21:21:53.781Z,89.70
2022-09-03T21:24:32.753Z,89.14
2022-09-03T21:27:13.094Z,88.93
2022-09-03T21:29:51.341Z,89.44
2022-09-03T21:32:30.889Z,89.87
2022-09-03T21:35:09.814Z,89.99
2022-09-03T21:37:43.139Z,88.50
2022-09-03T21:40:14.448Z,88.81
2022-09-03T21:42:59.899Z,88.64
2022-09-03T21:45:37.227Z,88.86
2022-09-03T21:48:14.056Z,88.88
2022-09-03T21:50:51.223Z,89.22
2022-09-03T21:53:31.810Z,89.92
2022-09-03T21:56:26.553Z,88.55
2022-09-03T21:59:09.352Z,89.17
2022-09-03T22:01:59.372Z,88.40
2022-09-03T22:04:29.201Z,89.39
2022-09-03T22:07:09.844Z,88.90
2022-09-03T22:09:46.890Z,90.75
2022-09-03T22:12:25.444Z,90.58
2022-09-03T22:14:56.755Z,90.82
2022-09-03T22:17:37.699Z,90.71
2022-09-03T22:20:11.863Z,89.97
2022-09-03T22:22:56.692Z,91.29
2022-09-03T22:25:36.083Z,91.11
2022-09-03T22:28:15.393Z,90.79
2022-09-03T22:30:52.179Z,90.79
2022-09-03T22:33:33.785Z,91.41
2022-09-03T22:36:10.265Z,91.37
2022-09-03T22:39:13.817Z,91.06
2022-09-03T22:42:23.901Z,91.41
2022-09-03T22:45:19.491Z,90.67
2022-09-03T22:48:10.521Z,91.75
2022-09-03T22:50:52.993Z,91.40
2022-09-03T22:53:36.767Z,91.08
2022-09-03T22:56:10.285Z,91.58
2022-09-03T22:58:46.586Z,91.15
2022-09-03T23:01:23.861Z,91.42
2022-09-03T23:03:58.626Z,91.65
2022-09-03T23:06:35.378Z,91.68
2022-09-03T23:09:08.884Z,91.92
2022-09-03T23:11:43.931Z,91.33
2022-09-03T23:14:16.951Z,91.48
2022-09-03T23:16:52.751Z,92.28
2022-09-03T23:19:40.862Z,91.88
2022-09-03T23:22:20.926Z,91.23
2022-09-03T23:24:56.704Z,91.92
2022-09-03T23:27:32.695Z,91.80
2022-09-03T23:30:02.871Z,92.17
2022-09-03T23:32:33.736Z,91.96
2022-09-03T23:35:08.497Z,92.15
2022-09-03T23:37:59.340Z,91.97
2022-09-03T23:40:50.433Z,92.61
2022-09-03T23:43:52.371Z,90.86
2022-09-03T23:46:26.990Z,91.85
2022-09-03T23:49:33.954Z,92.00
2022-09-03T23:52:27.016Z,92.19
2022-09-03T23:55:12.090Z,91.67
2022-09-03T23:57:46.846Z,91.65
